Time;durP1;ratioP1;P1;durP2;ratioP2;P2;SDS_P1;SDS_P2;PMS_P1;PMS_P2;Temp;Humidity;BMP_temperature;BMP_pressure;BME280_temperature;BME280_humidity;BME280_pressure;Samples;Min_cycle;Max_cycle;Signal;HPM_P1;HPM_P2
2022/09/18 00:00:58;;;;;;;10.80;1.83;;;;;;;11.33;nan;101464.88;5053823;28;20115;-59
2022/09/18 00:03:23;;;;;;;9.82;1.73;;;;;;;11.44;nan;101473.34;5052642;28;20021;-60
2022/09/18 00:05:48;;;;;;;2.90;1.10;;;;;;;11.72;nan;101507.81;5053670;28;20511;-58
2022/09/18 00:08:14;;;;;;;6.28;1.30;;;;;;;11.62;nan;101487.84;5069436;28;20119;-58
2022/09/18 00:10:45;;;;;;;4.35;1.38;;;;;;;11.68;nan;101508.78;5053571;28;20472;-57
2022/09/18 00:13:11;;;;;;;9.48;1.50;;;;;;;11.44;nan;101465.44;5053681;28;20389;-57
2022/09/18 00:15:36;;;;;;;4.68;1.50;;;;;;;11.46;nan;101462.78;5053733;28;20455;-59
2022/09/18 00:18:03;;;;;;;5.78;1.40;;;;;;;11.74;nan;101512.16;5068914;28;20037;-57
2022/09/18 00:20:29;;;;;;;3.08;0.93;;;;;;;11.72;nan;101518.38;5053405;28;20075;-57
2022/09/18 00:22:54;;;;;;;3.55;0.70;;;;;;;11.62;nan;101504.53;5052534;28;20033;-58
2022/09/18 00:25:20;;;;;;;3.50;0.88;;;;;;;11.67;nan;101517.59;5053268;28;20052;-59
2022/09/18 00:27:45;;;;;;;1.85;0.50;;;;;;;11.59;nan;101522.19;5053415;28;20029;-55
2022/09/18 00:30:11;;;;;;;2.70;0.90;;;;;;;11.39;nan;101463.84;5052180;28;20037;-59
2022/09/18 00:32:36;;;;;;;5.72;1.05;;;;;;;11.71;nan;101516.63;5053229;28;20112;-61
2022/09/18 00:35:01;;;;;;;3.42;1.15;;;;;;;11.59;nan;101501.09;5053094;28;20060;-59
2022/09/18 00:37:27;;;;;;;3.10;0.90;;;;;;;11.74;nan;101522.69;5053304;28;20064;-59
2022/09/18 00:39:52;;;;;;;7.30;1.35;;;;;;;11.82;nan;101523.34;5035519;28;20037;-57
2022/09/18 00:42:19;;;;;;;6.43;1.13;;;;;;;11.79;nan;101490.94;5053109;28;20029;-57
2022/09/18 00:44:45;;;;;;;5.28;0.90;;;;;;;11.99;nan;101517.66;5051547;28;20153;-59
2022/09/18 00:47:11;;;;;;;5.55;1.30;;;;;;;12.05;nan;101535.09;5052527;28;20068;-57
2022/09/18 00:50:02;;;;;;;8.57;1.60;;;;;;;12.09;nan;101544.63;5052761;28;20067;-56
2022/09/18 00:52:35;;;;;;;8.63;1.10;;;;;;;12.09;nan;101555.19;5051492;28;20108;-58
2022/09/18 00:55:07;;;;;;;6.32;1.48;;;;;;;11.93;nan;101533.63;5068259;28;20056;-59
2022/09/18 00:57:34;;;;;;;9.15;1.55;;;;;;;11.46;nan;101470.69;5068180;28;20033;-60
2022/09/18 01:00:03;;;;;;;8.82;1.55;;;;;;;11.65;nan;101535.22;5051403;28;20385;-59
2022/09/18 01:02:28;;;;;;;6.05;0.90;;;;;;;11.51;nan;101514.50;5068288;28;20047;-57
2022/09/18 01:04:53;;;;;;;4.50;0.98;;;;;;;11.44;nan;101518.16;5052581;28;20389;-57
2022/09/18 01:07:44;;;;;;;3.75;0.82;;;;;;;11.45;nan;101517.28;5052722;28;20547;-59
2022/09/18 01:10:39;;;;;;;6.88;1.20;;;;;;;11.45;nan;101503.22;5052718;28;20033;-61
2022/09/18 01:13:17;;;;;;;8.27;1.30;;;;;;;11.45;nan;101490.03;5043542;28;20057;-59
2022/09/18 01:15:51;;;;;;;9.40;1.33;;;;;;;11.52;nan;101508.31;5052886;28;20167;-54
2022/09/18 01:18:41;;;;;;;8.15;1.27;;;;;;;11.51;nan;101501.31;5052435;28;20392;-59
2022/09/18 01:21:13;;;;;;;6.15;1.40;;;;;;;11.49;nan;101497.84;5052403;28;20071;-60
2022/09/18 01:23:51;;;;;;;4.47;1.20;;;;;;;11.49;nan;101494.34;5034750;28;20427;-57
2022/09/18 01:26:28;;;;;;;4.63;1.08;;;;;;;11.47;nan;101491.72;5051053;28;20044;-59
2022/09/18 01:29:18;;;;;;;3.90;0.80;;;;;;;11.51;nan;101495.16;5052267;28;20033;-56
2022/09/18 01:31:52;;;;;;;5.20;1.35;;;;;;;11.44;nan;101476.00;5067983;28;20111;-59
2022/09/18 01:34:33;;;;;;;7.05;1.30;;;;;;;11.51;nan;101495.16;5052234;28;20446;-58
2022/09/18 01:37:19;;;;;;;4.53;1.10;;;;;;;11.43;nan;101492.72;5052178;28;20033;-59
2022/09/18 01:39:51;;;;;;;6.75;1.30;;;;;;;11.60;nan;101500.19;5050997;28;20380;-59
2022/09/18 01:42:18;;;;;;;4.78;1.02;;;;;;;11.68;nan;101495.59;5050996;28;20476;-58
2022/09/18 01:44:44;;;;;;;6.53;1.42;;;;;;;11.68;nan;101485.03;5050482;28;20036;-59
2022/09/18 01:47:12;;;;;;;8.73;1.15;;;;;;;11.40;nan;101437.47;5067415;28;20422;-58
2022/09/18 01:49:42;;;;;;;6.15;1.30;;;;;;;11.66;nan;101484.22;5050818;28;20032;-59
2022/09/18 01:52:41;;;;;;;7.93;1.48;;;;;;;11.76;nan;101483.94;5050772;28;20036;-59
2022/09/18 01:55:12;;;;;;;6.28;1.73;;;;;;;11.77;nan;101483.06;5047509;28;20037;-60
2022/09/18 01:57:57;;;;;;;12.40;1.27;;;;;;;11.87;nan;101466.97;5051969;28;20040;-61
2022/09/18 02:00:23;;;;;;;12.40;2.50;;;;;;;11.64;nan;101425.38;5050816;28;20032;-59
2022/09/18 02:03:00;;;;;;;13.07;1.58;;;;;;;11.98;nan;101486.00;5051936;28;20040;-59
2022/09/18 02:05:30;;;;;;;6.38;1.20;;;;;;;11.99;nan;101464.88;5069190;28;20479;-60
2022/09/18 02:08:18;;;;;;;7.38;1.60;;;;;;;12.08;nan;101483.09;5071486;28;20043;-60
2022/09/18 02:11:02;;;;;;;19.02;2.05;;;;;;;12.11;nan;101480.34;5055769;28;20451;-58
2022/09/18 02:13:31;;;;;;;8.15;1.27;;;;;;;11.86;nan;101423.91;5054270;28;20106;-60
2022/09/18 02:15:59;;;;;;;10.38;1.77;;;;;;;12.14;nan;101468.84;5054552;28;20028;-61
2022/09/18 02:18:29;;;;;;;4.50;1.30;;;;;;;12.05;nan;101451.50;5055849;28;20033;-60
2022/09/18 02:20:54;;;;;;;6.05;1.50;;;;;;;12.07;nan;101443.53;5071314;28;20029;-59
2022/09/18 02:23:20;;;;;;;5.25;1.10;;;;;;;12.04;nan;101433.06;5055777;28;20033;-59
2022/09/18 02:25:49;;;;;;;7.47;1.25;;;;;;;12.03;nan;101426.06;5054630;28;20495;-60
2022/09/18 02:28:17;;;;;;;5.97;1.40;;;;;;;12.25;nan;101462.34;5054535;28;20078;-59
2022/09/18 02:30:42;;;;;;;7.68;1.35;;;;;;;12.34;nan;101474.41;5054594;28;20025;-63
2022/09/18 02:33:26;;;;;;;6.53;1.15;;;;;;;12.29;nan;101473.66;5055650;28;20032;-58
2022/09/18 02:36:03;;;;;;;6.45;1.15;;;;;;;12.28;nan;101485.16;5055495;28;20047;-59
2022/09/18 02:38:40;;;;;;;10.77;1.52;;;;;;;12.22;nan;101473.00;5055137;28;20086;-60
2022/09/18 02:41:23;;;;;;;6.68;1.58;;;;;;;11.82;nan;101407.28;5054320;28;20029;-59
2022/09/18 02:44:02;;;;;;;6.70;1.52;;;;;;;12.18;nan;101474.00;5055318;28;20145;-59
2022/09/18 02:46:48;;;;;;;9.20;2.13;;;;;;;12.21;nan;101465.09;5070195;28;20107;-59
2022/09/18 02:49:18;;;;;;;7.50;1.10;;;;;;;11.91;nan;101423.78;5070693;28;20037;-61
2022/09/18 02:51:57;;;;;;;6.50;1.08;;;;;;;12.19;nan;101483.66;5055125;28;20388;-60
2022/09/18 02:54:32;;;;;;;5.43;0.98;;;;;;;12.20;nan;101469.53;5054049;28;20093;-59
2022/09/18 02:57:09;;;;;;;4.65;0.90;;;;;;;11.91;nan;101423.78;5070591;28;20450;-60
2022/09/18 02:59:38;;;;;;;8.07;1.08;;;;;;;12.15;nan;101474.06;5070718;28;20029;-62
2022/09/18 03:02:03;;;;;;;3.95;0.70;;;;;;;12.17;nan;101468.78;5070303;28;20457;-61
2022/09/18 03:04:28;;;;;;;4.80;1.15;;;;;;;11.85;nan;101423.03;5053463;28;20037;-59
2022/09/18 03:06:54;;;;;;;3.50;0.70;;;;;;;11.85;nan;101412.50;5054994;28;20075;-59
2022/09/18 03:09:20;;;;;;;4.30;0.93;;;;;;;11.85;nan;101416.88;5054888;28;20400;-60
2022/09/18 03:11:46;;;;;;;3.47;0.82;;;;;;;12.14;nan;101480.25;5054919;28;20508;-60
2022/09/18 03:14:11;;;;;;;3.40;1.02;;;;;;;12.11;nan;101463.66;5054565;28;20041;-59
2022/09/18 03:16:37;;;;;;;6.05;1.27;;;;;;;12.22;nan;101473.00;5054422;28;20037;-57
2022/09/18 03:19:02;;;;;;;4.70;1.20;;;;;;;12.34;nan;101479.69;5054734;28;20040;-60
2022/09/18 03:21:28;;;;;;;4.88;1.02;;;;;;;12.34;nan;101472.66;5054628;28;20065;-61
2022/09/18 03:23:53;;;;;;;5.30;1.13;;;;;;;12.01;nan;101426.13;5054614;28;20086;-60
2022/09/18 03:26:18;;;;;;;7.05;1.10;;;;;;;11.96;nan;101416.59;5053699;28;20068;-58
2022/09/18 03:28:44;;;;;;;4.95;1.13;;;;;;;12.21;nan;101473.03;5054634;28;20087;-60
2022/09/18 03:31:10;;;;;;;5.60;1.27;;;;;;;12.22;nan;101466.84;5054548;28;20037;-60
2022/09/18 03:33:36;;;;;;;6.88;1.00;;;;;;;11.88;nan;101402.78;5054306;28;20476;-59
2022/09/18 03:36:02;;;;;;;5.75;1.10;;;;;;;12.06;nan;101441.78;5054359;28;20047;-59
2022/09/18 03:38:27;;;;;;;5.35;1.20;;;;;;;12.09;nan;101455.78;5069638;28;20036;-59
2022/09/18 03:40:52;;;;;;;1.55;0.75;;;;;;;12.12;nan;101445.13;5053362;28;20120;-59
2022/09/18 03:43:18;;;;;;;5.68;1.05;;;;;;;11.85;nan;101412.50;5054281;28;20032;-60
2022/09/18 03:45:43;;;;;;;9.38;1.25;;;;;;;11.92;nan;101413.19;5054436;28;20075;-59
2022/09/18 03:48:08;;;;;;;7.80;1.17;;;;;;;12.28;nan;101451.72;5054247;28;20025;-60
2022/09/18 03:50:34;;;;;;;9.10;1.35;;;;;;;11.94;nan;101398.16;5054216;28;20040;-59
2022/09/18 03:52:59;;;;;;;6.05;1.15;;;;;;;11.92;nan;101415.81;5054016;28;20087;-58
2022/09/18 03:55:26;;;;;;;5.15;1.30;;;;;;;11.65;nan;101391.06;5053008;28;20104;-59
2022/09/18 03:57:51;;;;;;;5.93;1.25;;;;;;;11.59;nan;101396.50;5069390;28;20539;-59
2022/09/18 04:00:16;;;;;;;8.30;1.73;;;;;;;11.54;nan;101402.81;5047128;28;20041;-61
2022/09/18 04:02:42;;;;;;;5.45;1.30;;;;;;;11.57;nan;101390.41;5052066;28;20025;-59
2022/09/18 04:05:08;;;;;;;11.23;1.30;;;;;;;11.69;nan;101423.47;5047726;28;20018;-59
2022/09/18 04:07:33;;;;;;;5.00;1.05;;;;;;;11.56;nan;101398.34;5032150;28;20030;-60
2022/09/18 04:09:58;;;;;;;5.95;1.15;;;;;;;11.80;nan;101432.88;5032952;28;20087;-59
2022/09/18 04:12:24;;;;;;;6.95;1.55;;;;;;;11.59;nan;101399.13;5032132;28;20458;-59
2022/09/18 04:14:49;;;;;;;5.00;0.90;;;;;;;11.82;nan;101436.31;5033785;28;20530;-59
2022/09/18 04:17:14;;;;;;;6.80;1.45;;;;;;;11.61;nan;101396.47;5033581;28;20452;-59
2022/09/18 04:19:40;;;;;;;5.30;1.02;;;;;;;11.92;nan;101460.66;5033782;28;20049;-58
2022/09/18 04:22:05;;;;;;;2.92;0.80;;;;;;;11.54;nan;101389.63;5033368;28;20793;-57
2022/09/18 04:24:31;;;;;;;4.68;1.20;;;;;;;11.91;nan;101460.72;5033617;28;20033;-59
2022/09/18 04:26:56;;;;;;;4.07;0.80;;;;;;;11.96;nan;101458.81;5033360;28;20044;-61
2022/09/18 04:29:21;;;;;;;1.70;0.50;;;;;;;11.67;nan;101407.72;5033113;28;20069;-59
2022/09/18 04:31:47;;;;;;;3.03;0.80;;;;;;;11.82;nan;101433.66;5033416;28;20495;-62
2022/09/18 04:34:12;;;;;;;10.48;2.20;;;;;;;11.98;nan;101454.34;5033348;28;20053;-63
2022/09/18 04:36:37;;;;;;;5.18;0.65;;;;;;;11.99;nan;101448.19;5033155;28;20095;-60
2022/09/18 04:39:03;;;;;;;3.80;1.00;;;;;;;12.01;nan;101454.25;5033107;28;20099;-60
2022/09/18 04:41:28;;;;;;;8.38;1.05;;;;;;;12.07;nan;101478.72;5032099;28;20087;-61
2022/09/18 04:43:53;;;;;;;5.85;0.77;;;;;;;12.10;nan;101483.03;5033389;28;20449;-58
2022/09/18 04:46:19;;;;;;;1.90;0.93;;;;;;;12.13;nan;101464.47;5033175;28;20056;-60
2022/09/18 04:48:46;;;;;;;3.15;0.70;;;;;;;11.85;nan;101424.81;5033015;28;20029;-61
2022/09/18 04:51:12;;;;;;;3.25;0.80;;;;;;;11.94;nan;101432.47;5031527;28;20481;-60
2022/09/18 04:53:38;;;;;;;4.53;0.70;;;;;;;11.65;nan;101392.81;5032965;28;20033;-61
2022/09/18 04:56:03;;;;;;;4.45;1.10;;;;;;;11.84;nan;101439.78;5031620;28;20164;-60
2022/09/18 04:58:29;;;;;;;6.35;0.80;;;;;;;11.50;nan;101377.44;5032797;28;20127;-62
2022/09/18 05:00:54;;;;;;;4.50;0.70;;;;;;;11.79;nan;101430.28;5031719;28;20057;-59
2022/09/18 05:03:21;;;;;;;3.22;0.82;;;;;;;11.77;nan;101427.66;5031636;28;20405;-60
2022/09/18 05:05:47;;;;;;;4.22;1.42;;;;;;;11.39;nan;101351.38;5032712;28;20037;-60
2022/09/18 05:08:12;;;;;;;6.35;1.20;;;;;;;11.41;nan;101375.94;5031689;28;20029;-60
2022/09/18 05:10:38;;;;;;;3.05;0.77;;;;;;;11.66;nan;101423.56;5032824;28;20041;-60
2022/09/18 05:13:04;;;;;;;5.97;1.08;;;;;;;11.62;nan;101420.13;5032381;28;20057;-59
2022/09/18 05:15:30;;;;;;;2.67;0.60;;;;;;;11.64;nan;101421.00;5032824;28;20033;-59
2022/09/18 05:17:59;;;;;;;3.90;1.25;;;;;;;11.59;nan;101399.13;5031649;28;20091;-59
2022/09/18 05:20:25;;;;;;;8.07;0.90;;;;;;;11.49;nan;101380.97;5031343;28;20116;-60
2022/09/18 05:22:50;;;;;;;4.00;0.98;;;;;;;11.47;nan;101362.56;5032810;28;20133;-59
2022/09/18 05:25:15;;;;;;;5.03;0.95;;;;;;;11.75;nan;101426.84;5032986;28;20129;-60
2022/09/18 05:27:41;;;;;;;4.25;0.93;;;;;;;11.77;nan;101413.63;5032549;28;20494;-60
2022/09/18 05:30:07;;;;;;;5.00;0.93;;;;;;;11.73;nan;101410.19;5032476;28;20053;-61
2022/09/18 05:32:32;;;;;;;3.47;0.73;;;;;;;11.49;nan;101360.75;5032245;28;20037;-61
2022/09/18 05:34:57;;;;;;;3.08;0.65;;;;;;;11.53;nan;101366.81;5032351;28;20388;-59
2022/09/18 05:37:23;;;;;;;10.57;1.52;;;;;;;11.56;nan;101369.34;5032392;28;20037;-56
2022/09/18 05:39:48;;;;;;;7.72;1.20;;;;;;;11.96;nan;101408.69;5032357;28;20040;-60
2022/09/18 05:42:13;;;;;;;9.93;1.63;;;;;;;11.98;nan;101398.94;5032034;28;20344;-59
2022/09/18 05:44:39;;;;;;;7.93;1.85;;;;;;;12.01;nan;101394.44;5032224;28;20037;-59
2022/09/18 05:47:04;;;;;;;11.63;1.27;;;;;;;12.03;nan;101412.88;5031055;28;20507;-59
2022/09/18 05:49:29;;;;;;;6.00;1.55;;;;;;;11.85;nan;101372.06;5032227;28;20037;-59
2022/09/18 05:51:55;;;;;;;7.40;1.40;;;;;;;12.05;nan;101400.50;5032277;28;20034;-56
2022/09/18 05:54:20;;;;;;;8.95;1.33;;;;;;;11.96;nan;101391.09;5032065;28;20431;-60
2022/09/18 05:56:45;;;;;;;9.38;2.40;;;;;;;11.68;nan;101364.59;5032305;28;20087;-62
2022/09/18 05:59:11;;;;;;;7.30;1.27;;;;;;;11.94;nan;101414.00;5032108;28;20100;-62
2022/09/18 06:01:37;;;;;;;8.40;1.52;;;;;;;11.90;nan;101408.88;5030964;28;20052;-60
2022/09/18 06:04:02;;;;;;;8.25;2.65;;;;;;;11.82;nan;101404.66;5030946;28;20034;-61
2022/09/18 06:06:28;;;;;;;5.88;1.08;;;;;;;11.46;nan;101346.78;5030671;28;20116;-60
2022/09/18 06:08:54;;;;;;;7.53;1.33;;;;;;;11.70;nan;101388.34;5030776;28;20393;-64
2022/09/18 06:11:19;;;;;;;9.70;2.70;;;;;;;11.69;nan;101395.38;5031029;28;20065;-60
2022/09/18 06:13:47;;;;;;;9.98;1.63;;;;;;;11.39;nan;101338.19;5031882;28;20058;-59
2022/09/18 06:16:13;;;;;;;8.50;1.80;;;;;;;11.42;nan;101340.75;5030755;28;20037;-63
2022/09/18 06:18:38;;;;;;;6.70;1.33;;;;;;;11.68;nan;101376.91;5031872;28;20452;-63
2022/09/18 06:21:04;;;;;;;5.93;1.42;;;;;;;11.74;nan;101389.97;5031903;28;20161;-60
2022/09/18 06:23:29;;;;;;;7.85;1.25;;;;;;;11.77;nan;101389.88;5030756;28;20034;-59
2022/09/18 06:26:03;;;;;;;7.40;1.50;;;;;;;11.56;nan;101348.25;5030658;28;20065;-60
2022/09/18 06:28:32;;;;;;;9.15;2.45;;;;;;;11.48;nan;101326.53;5032130;28;20033;-59
2022/09/18 06:30:58;;;;;;;10.93;1.55;;;;;;;11.81;nan;101380.97;5031931;28;20029;-60
2022/09/18 06:33:24;;;;;;;8.25;1.40;;;;;;;11.87;nan;101388.72;5031645;28;20069;-58
2022/09/18 06:35:50;;;;;;;7.57;1.55;;;;;;;11.90;nan;101387.75;5030705;28;20139;-60
2022/09/18 06:38:16;;;;;;;6.18;1.45;;;;;;;11.95;nan;101399.91;5031824;28;20440;-64
2022/09/18 06:40:49;;;;;;;11.05;1.60;;;;;;;11.78;nan;101352.94;5031876;28;20029;-60
2022/09/18 06:43:14;;;;;;;16.35;2.20;;;;;;;11.82;nan;101340.53;5031611;28;20057;-60
2022/09/18 06:45:39;;;;;;;10.40;2.60;;;;;;;12.10;nan;101374.84;5031704;28;20485;-59
2022/09/18 06:48:06;;;;;;;8.27;1.92;;;;;;;11.97;nan;101333.88;5030482;28;20091;-60
2022/09/18 06:50:31;;;;;;;10.07;1.90;;;;;;;11.51;nan;101248.22;5031916;28;20038;-61
2022/09/18 06:53:04;;;;;;;13.30;2.45;;;;;;;12.00;nan;101324.13;5035092;28;20072;-60
2022/09/18 06:55:30;;;;;;;9.18;1.63;;;;;;;12.29;nan;101374.22;5034164;28;20032;-58
2022/09/18 06:57:57;;;;;;;9.05;1.95;;;;;;;12.29;nan;101362.78;5033787;28;20041;-62
2022/09/18 07:00:23;;;;;;;9.48;1.73;;;;;;;12.49;nan;101393.88;5033789;28;20040;-61
2022/09/18 07:03:01;;;;;;;11.13;1.40;;;;;;;12.31;nan;101369.78;5035294;28;20037;-60
2022/09/18 07:05:29;;;;;;;7.57;2.25;;;;;;;12.21;nan;101341.06;5035032;28;20080;-59
2022/09/18 07:07:54;;;;;;;10.02;2.47;;;;;;;12.32;nan;101365.34;5033834;28;20045;-59
2022/09/18 07:10:19;;;;;;;4.68;1.40;;;;;;;12.60;nan;101392.63;5034975;28;20057;-61
2022/09/18 07:12:47;;;;;;;5.47;1.40;;;;;;;12.45;nan;101348.22;5034723;28;20049;-59
2022/09/18 07:15:17;;;;;;;7.47;1.30;;;;;;;12.56;nan;101353.16;5034657;28;20439;-59
2022/09/18 07:17:44;;;;;;;9.43;1.27;;;;;;;12.75;nan;101368.38;5033424;28;20587;-60
2022/09/18 07:20:10;;;;;;;4.75;1.15;;;;;;;12.93;nan;101401.22;5034873;28;20120;-61
2022/09/18 07:22:36;;;;;;;7.40;1.40;;;;;;;12.81;nan;101369.94;5034836;28;20215;-60
2022/09/18 07:25:03;;;;;;;5.15;1.42;;;;;;;12.76;nan;101354.22;5033568;28;20388;-63
2022/09/18 07:27:28;;;;;;;6.60;1.40;;;;;;;13.15;nan;101409.34;5034527;28;20040;-62
2022/09/18 07:29:55;;;;;;;8.93;2.17;;;;;;;13.14;nan;101403.19;5034484;28;20038;-59
2022/09/18 07:32:21;;;;;;;7.88;1.90;;;;;;;13.25;nan;101411.59;5033502;28;20029;-59
2022/09/18 07:34:47;;;;;;;13.93;2.13;;;;;;;13.05;nan;101360.31;5034530;28;20037;-61
2022/09/18 07:37:12;;;;;;;5.75;1.02;;;;;;;13.13;nan;101356.53;5034498;28;20115;-60
2022/09/18 07:39:37;;;;;;;7.28;2.00;;;;;;;13.13;nan;101355.66;5034055;28;20191;-60
2022/09/18 07:42:03;;;;;;;5.25;1.52;;;;;;;13.45;nan;101405.66;5034364;28;20029;-59
2022/09/18 07:44:30;;;;;;;6.60;1.50;;;;;;;13.49;nan;101416.03;5034458;28;20041;-59
2022/09/18 07:46:56;;;;;;;8.50;1.60;;;;;;;13.58;nan;101417.50;5033238;28;20041;-58
2022/09/18 07:49:21;;;;;;;10.40;1.17;;;;;;;13.23;nan;101365.84;5033055;28;20487;-60
2022/09/18 07:51:47;;;;;;;5.28;1.20;;;;;;;13.51;nan;101431.88;5033017;28;20088;-60
2022/09/18 07:54:12;;;;;;;3.47;0.80;;;;;;;13.13;nan;101375.03;5032703;28;20029;-60
2022/09/18 07:56:37;;;;;;;6.07;1.17;;;;;;;13.22;nan;101410.88;5033698;28;20160;-60
2022/09/18 07:59:03;;;;;;;6.30;1.52;;;;;;;13.22;nan;101435.50;5033656;28;20041;-60
2022/09/18 08:01:28;;;;;;;5.97;1.20;;;;;;;13.03;nan;101429.06;5034065;28;20384;-61
2022/09/18 08:03:54;;;;;;;7.55;1.33;;;;;;;12.81;nan;101410.41;5032930;28;20401;-58
2022/09/18 08:06:19;;;;;;;4.43;1.40;;;;;;;12.62;nan;101404.00;5033737;28;20074;-60
2022/09/18 08:08:45;;;;;;;7.22;2.15;;;;;;;12.60;nan;101403.19;5033413;28;20036;-60
2022/09/18 08:11:10;;;;;;;7.95;1.65;;;;;;;12.27;nan;101352.31;5033459;28;20049;-59
2022/09/18 08:13:35;;;;;;;6.75;1.73;;;;;;;12.16;nan;101349.13;5032823;28;20483;-59
2022/09/18 08:16:02;;;;;;;5.90;1.35;;;;;;;12.15;nan;101350.03;5032414;28;20044;-58
2022/09/18 08:18:27;;;;;;;4.85;1.45;;;;;;;12.48;nan;101405.34;5031211;28;20064;-59
2022/09/18 08:20:56;;;;;;;8.95;1.50;;;;;;;12.43;nan;101381.75;5033633;28;20087;-60
2022/09/18 08:23:21;;;;;;;6.57;1.42;;;;;;;12.56;nan;101390.97;5033642;28;20128;-60
2022/09/18 08:25:47;;;;;;;5.93;1.02;;;;;;;12.67;nan;101386.22;5033341;28;20116;-62
2022/09/18 08:28:13;;;;;;;9.32;1.95;;;;;;;12.80;nan;101398.13;5033748;28;20060;-60
2022/09/18 08:30:38;;;;;;;4.32;1.10;;;;;;;12.59;nan;101353.91;5033707;28;20041;-60
2022/09/18 08:33:05;;;;;;;6.85;1.58;;;;;;;12.88;nan;101398.72;5015817;28;20125;-60
2022/09/18 08:35:31;;;;;;;9.98;1.90;;;;;;;12.81;nan;101378.69;5033316;28;20057;-63
2022/09/18 08:37:59;;;;;;;6.90;1.45;;;;;;;12.99;nan;101393.09;5033261;28;20440;-63
2022/09/18 08:40:48;;;;;;;18.75;2.13;;;;;;;12.88;nan;101358.22;5031606;28;20424;-60
2022/09/18 08:43:42;;;;;;;4.38;1.10;;;;;;;13.30;nan;101407.03;5032103;28;20362;-60
2022/09/18 08:46:11;;;;;;;6.93;1.50;;;;;;;13.17;nan;101355.50;5033009;28;20039;-62
2022/09/18 08:48:41;;;;;;;7.22;2.15;;;;;;;13.30;nan;101359.44;5031868;28;20077;-60
2022/09/18 08:51:25;;;;;;;6.07;1.40;;;;;;;13.59;nan;101408.66;5031877;28;20416;-61
2022/09/18 08:53:54;;;;;;;4.47;1.80;;;;;;;13.62;nan;101413.84;5031961;28;20025;-59
2022/09/18 08:56:24;;;;;;;9.35;1.70;;;;;;;13.72;nan;101409.94;5031702;28;20043;-60
2022/09/18 08:58:58;;;;;;;6.10;1.00;;;;;;;13.73;nan;101406.38;5031617;28;20064;-61
2022/09/18 09:01:32;;;;;;;3.17;1.05;;;;;;;13.81;nan;101421.97;5032697;28;20041;-60
2022/09/18 09:04:09;;;;;;;5.80;1.13;;;;;;;13.89;nan;101415.47;5031602;28;20029;-62
2022/09/18 09:07:14;;;;;;;2.33;0.70;;;;;;;14.01;nan;101415.00;5032893;28;20029;-60
2022/09/18 09:09:48;;;;;;;2.92;0.63;;;;;;;14.01;nan;101404.41;5031240;28;20412;-59
2022/09/18 09:12:21;;;;;;;3.70;0.80;;;;;;;14.23;nan;101420.38;5032652;28;20045;-61
2022/09/18 09:14:53;;;;;;;2.00;0.75;;;;;;;14.34;nan;101412.91;5032562;28;20045;-60
2022/09/18 09:17:40;;;;;;;6.35;1.08;;;;;;;14.43;nan;101412.56;5031119;28;20037;-61
2022/09/18 09:20:28;;;;;;;7.07;1.30;;;;;;;14.42;nan;101407.28;5032287;28;20102;-57
2022/09/18 09:23:02;;;;;;;6.05;1.35;;;;;;;14.37;nan;101402.19;5031238;28;20499;-60
2022/09/18 09:25:38;;;;;;;2.75;1.10;;;;;;;14.31;nan;101405.03;5032611;28;20038;-59
2022/09/18 09:28:11;;;;;;;4.65;1.05;;;;;;;13.93;nan;101381.81;5032448;28;20022;-59
2022/09/18 09:30:38;;;;;;;3.58;0.93;;;;;;;13.94;nan;101425.91;5014433;28;20519;-59
2022/09/18 09:33:15;;;;;;;8.25;1.20;;;;;;;13.59;nan;101431.59;5030905;28;20580;-54
2022/09/18 09:35:44;;;;;;;8.40;2.30;;;;;;;13.14;nan;101382.03;5030898;28;20037;-58
2022/09/18 09:38:34;;;;;;;4.10;0.85;;;;;;;13.08;nan;101432.44;5030942;28;20040;-60
2022/09/18 09:41:33;;;;;;;5.30;1.27;;;;;;;12.98;nan;101423.09;5032021;28;20044;-60
2022/09/18 09:44:02;;;;;;;5.80;1.35;;;;;;;12.63;nan;101362.59;5017646;28;20413;-61
2022/09/18 09:46:42;;;;;;;5.30;1.30;;;;;;;12.90;nan;101414.56;5032467;28;20136;-59
2022/09/18 09:49:16;;;;;;;3.22;1.20;;;;;;;12.90;nan;101409.28;5032038;28;20112;-58
2022/09/18 09:51:50;;;;;;;4.90;0.73;;;;;;;12.95;nan;101410.84;5032200;28;20116;-59
2022/09/18 09:54:16;;;;;;;5.07;1.10;;;;;;;12.95;nan;101405.56;5014272;28;20030;-61
2022/09/18 09:56:46;;;;;;;6.75;1.10;;;;;;;13.02;nan;101418.56;5031814;28;20076;-61
2022/09/18 09:59:30;;;;;;;5.93;1.35;;;;;;;12.82;nan;101361.06;5030760;28;20029;-60
2022/09/18 10:01:58;;;;;;;5.35;1.77;;;;;;;13.10;nan;101419.22;5031899;28;20057;-60
2022/09/18 10:04:27;;;;;;;3.67;1.30;;;;;;;13.19;nan;101403.88;5032072;28;20072;-60
2022/09/18 10:07:14;;;;;;;5.90;1.50;;;;;;;13.05;nan;101361.16;5031965;28;20415;-60
2022/09/18 10:09:59;;;;;;;5.45;1.20;;;;;;;13.41;nan;101409.31;5030483;28;20029;-61
2022/09/18 10:12:50;;;;;;;7.72;1.60;;;;;;;13.48;nan;101398.44;5012626;28;20046;-60
2022/09/18 10:15:20;;;;;;;6.78;2.08;;;;;;;13.68;nan;101394.22;5030368;28;20034;-60
2022/09/18 10:17:48;;;;;;;8.65;2.33;;;;;;;13.47;nan;101345.63;5030295;28;20041;-61
2022/09/18 10:20:15;;;;;;;5.85;1.20;;;;;;;13.45;nan;101350.09;5030457;28;20030;-61
2022/09/18 10:22:41;;;;;;;9.18;2.13;;;;;;;13.64;nan;101409.34;5030442;28;20064;-60
2022/09/18 10:25:16;;;;;;;11.82;2.55;;;;;;;13.37;nan;101363.59;5032147;28;20038;-58
2022/09/18 10:27:41;;;;;;;10.40;1.77;;;;;;;13.45;nan;101380.06;5034274;28;20028;-59
2022/09/18 10:30:11;;;;;;;7.40;1.55;;;;;;;13.53;nan;101380.66;5035616;28;20038;-57
2022/09/18 10:32:40;;;;;;;10.20;2.22;;;;;;;13.66;nan;101441.06;5035430;28;20022;-58
2022/09/18 10:35:27;;;;;;;7.13;1.80;;;;;;;13.51;nan;101430.06;5034149;28;20025;-58
2022/09/18 10:37:52;;;;;;;5.93;1.58;;;;;;;13.33;nan;101422.81;5035434;28;20037;-59
2022/09/18 10:40:38;;;;;;;8.23;6.50;;;;;;;13.16;nan;101417.22;5017666;28;20144;-59
2022/09/18 10:43:05;;;;;;;4.70;1.30;;;;;;;12.27;nan;101294.22;5033986;28;20099;-59
2022/09/18 10:45:36;;;;;;;4.07;0.95;;;;;;;12.96;nan;101404.63;5035053;28;20045;-61
2022/09/18 10:48:12;;;;;;;5.63;1.20;;;;;;;12.85;nan;101367.13;5034005;28;20033;-61
2022/09/18 10:50:38;;;;;;;6.82;0.90;;;;;;;13.15;nan;101418.13;5001595;28;20025;-60
2022/09/18 10:53:20;;;;;;;6.93;1.50;;;;;;;13.17;nan;101423.34;5033892;28;20063;-62
2022/09/18 10:55:48;;;;;;;6.70;1.65;;;;;;;12.72;nan;101362.31;5034905;28;20469;-59
2022/09/18 10:58:14;;;;;;;7.45;1.38;;;;;;;12.61;nan;101378.50;5034675;28;20034;-60
2022/09/18 11:01:01;;;;;;;4.50;1.17;;;;;;;12.70;nan;101409.88;5035068;28;20034;-63
2022/09/18 11:03:29;;;;;;;5.57;1.20;;;;;;;12.81;nan;101417.50;5035039;28;20216;-61
2022/09/18 11:05:57;;;;;;;5.40;1.63;;;;;;;12.89;nan;101403.13;5034904;28;20037;-58
2022/09/18 11:08:45;;;;;;;7.03;1.33;;;;;;;12.72;nan;101357.03;5034794;28;20556;-61
2022/09/18 11:11:42;;;;;;;8.38;2.25;;;;;;;13.03;nan;101397.34;5033530;28;20038;-61
2022/09/18 11:14:17;;;;;;;7.10;1.33;;;;;;;13.08;nan;101397.22;5025794;28;20053;-60
2022/09/18 11:16:45;;;;;;;8.63;1.98;;;;;;;13.12;nan;101394.44;5033176;28;20025;-61
2022/09/18 11:19:10;;;;;;;3.42;1.02;;;;;;;13.14;nan;101405.81;5034754;28;20040;-59
2022/09/18 11:21:49;;;;;;;7.03;1.50;;;;;;;13.07;nan;101399.00;5034496;28;20029;-60
2022/09/18 11:24:27;;;;;;;5.63;1.48;;;;;;;12.98;nan;101408.09;5034890;28;20025;-59
2022/09/18 11:26:57;;;;;;;9.05;1.40;;;;;;;12.68;nan;101373.88;5034449;28;20177;-60
2022/09/18 11:29:28;;;;;;;7.45;1.35;;;;;;;12.89;nan;101404.88;5034399;28;20036;-60
2022/09/18 11:32:17;;;;;;;7.40;1.27;;;;;;;12.66;nan;101354.59;5034682;28;20063;-63
2022/09/18 11:34:51;;;;;;;8.18;1.85;;;;;;;12.92;nan;101400.38;5034782;28;20044;-61
2022/09/18 11:37:33;;;;;;;9.35;2.20;;;;;;;13.03;nan;101401.78;5042807;28;20381;-61
2022/09/18 11:40:04;;;;;;;7.43;1.65;;;;;;;13.12;nan;101397.09;5052654;28;20116;-60
2022/09/18 11:42:30;;;;;;;;;;;;;;;13.20;nan;101399.47;5054095;28;20036;-60
2022/09/18 11:45:10;;;;;;;6.28;1.67;;;;;;;13.21;nan;101391.50;5052716;28;19913;-59
2022/09/18 11:47:41;;;;;;;4.18;1.30;;;;;;;13.33;nan;101398.13;5051259;28;20025;-61
2022/09/18 11:50:19;;;;;;;7.57;1.73;;;;;;;13.16;nan;101350.28;5052388;28;20068;-60
2022/09/18 11:52:57;;;;;;;9.10;2.10;;;;;;;13.49;nan;101391.38;5053488;28;20472;-62
2022/09/18 11:55:43;;;;;;;6.15;1.33;;;;;;;13.56;nan;101390.25;5052960;28;20033;-61